createdAt,value
2023-03-25T00:00:00.316Z,2.95
2023-03-25T00:02:08.307Z,1.30
2023-03-25T00:04:17.946Z,1.27
2023-03-25T00:06:26.382Z,1.40
2023-03-25T00:08:37.275Z,2.00
2023-03-25T00:10:45.217Z,1.20
2023-03-25T00:12:54.651Z,1.20
2023-03-25T00:15:03.196Z,4.35
2023-03-25T00:17:14.809Z,1.20
2023-03-25T00:19:23.173Z,0.70
2023-03-25T00:21:33.711Z,1.05
2023-03-25T00:23:45.221Z,0.90
2023-03-25T00:25:53.914Z,1.73
2023-03-25T00:28:04.330Z,0.80
2023-03-25T00:30:13.908Z,1.00
2023-03-25T00:32:21.841Z,0.77
2023-03-25T00:34:30.232Z,0.63
2023-03-25T00:36:39.403Z,0.70
2023-03-25T00:38:52.044Z,0.82
2023-03-25T00:41:00.671Z,1.10
2023-03-25T00:43:13.187Z,1.75
2023-03-25T00:45:21.162Z,0.80
2023-03-25T00:47:29.199Z,0.82
2023-03-25T00:49:37.637Z,0.95
2023-03-25T00:51:52.813Z,0.88
2023-03-25T00:54:04.858Z,1.20
2023-03-25T00:56:15.014Z,0.80
2023-03-25T00:58:22.934Z,0.70
2023-03-25T01:00:31.350Z,1.40
2023-03-25T01:02:39.919Z,1.00
2023-03-25T01:04:49.962Z,0.82
2023-03-25T01:06:59.360Z,0.90
2023-03-25T01:09:13.690Z,1.40
2023-03-25T01:11:24.945Z,1.20
2023-03-25T01:13:33.232Z,5.13
2023-03-25T01:15:44.312Z,1.45
2023-03-25T01:17:52.299Z,2.92
2023-03-25T01:20:00.618Z,2.25
2023-03-25T01:22:08.959Z,1.85
2023-03-25T01:24:20.000Z,2.85
2023-03-25T01:26:28.204Z,1.63
2023-03-25T01:28:36.129Z,1.35
2023-03-25T01:30:45.435Z,2.03
2023-03-25T01:32:53.368Z,3.42
2023-03-25T01:35:01.298Z,2.50
2023-03-25T01:37:10.156Z,2.38
2023-03-25T01:39:22.249Z,2.65
2023-03-25T01:41:42.640Z,4.45
2023-03-25T01:44:08.381Z,1.50
2023-03-25T01:46:17.636Z,1.10
2023-03-25T01:48:28.894Z,2.00
2023-03-25T01:50:40.252Z,1.95
2023-03-25T01:52:54.051Z,1.20
2023-03-25T01:55:06.285Z,1.13
2023-03-25T01:57:18.519Z,1.25
2023-03-25T01:59:29.393Z,3.28
2023-03-25T02:01:37.697Z,2.35
2023-03-25T02:03:51.447Z,3.50
2023-03-25T02:06:04.370Z,3.20
2023-03-25T02:08:12.589Z,1.27
2023-03-25T02:10:23.659Z,1.60
2023-03-25T02:12:31.811Z,1.15
2023-03-25T02:14:41.554Z,2.63
2023-03-25T02:16:59.272Z,1.52
2023-03-25T02:19:42.552Z,4.80
2023-03-25T02:22:25.928Z,1.60
2023-03-25T02:25:07.989Z,0.90
2023-03-25T02:27:34.082Z,1.50
2023-03-25T02:29:59.449Z,2.88
2023-03-25T02:32:21.779Z,1.58
2023-03-25T02:34:58.638Z,1.35
2023-03-25T02:37:41.835Z,1.20
2023-03-25T02:39:59.984Z,1.02
2023-03-25T02:42:27.154Z,1.13
2023-03-25T02:44:40.785Z,1.20
2023-03-25T02:46:54.749Z,1.45
2023-03-25T02:49:08.626Z,1.20
2023-03-25T02:51:23.832Z,1.27
2023-03-25T02:53:35.584Z,0.95
2023-03-25T02:55:48.370Z,0.85
2023-03-25T02:57:59.531Z,1.70
2023-03-25T03:00:15.820Z,2.10
2023-03-25T03:02:25.843Z,1.33
2023-03-25T03:04:34.345Z,2.53
2023-03-25T03:06:46.292Z,2.55
2023-03-25T03:09:09.306Z,1.33
2023-03-25T03:11:22.528Z,1.40
2023-03-25T03:13:42.564Z,0.85
2023-03-25T03:16:00.122Z,0.85
2023-03-25T03:18:16.666Z,1.17
2023-03-25T03:20:47.173Z,2.67
2023-03-25T03:23:02.275Z,1.10
2023-03-25T03:25:19.116Z,0.70
2023-03-25T03:27:34.335Z,2.15
2023-03-25T03:29:48.504Z,1.55
2023-03-25T03:32:06.398Z,0.75
2023-03-25T03:34:21.518Z,2.78
2023-03-25T03:36:32.842Z,1.52
2023-03-25T03:38:44.270Z,0.90
2023-03-25T03:40:56.913Z,0.60
2023-03-25T03:43:11.730Z,0.70
2023-03-25T03:45:24.615Z,1.20
2023-03-25T03:47:37.210Z,0.70
2023-03-25T03:49:51.091Z,1.58
2023-03-25T03:52:08.050Z,0.40
2023-03-25T03:54:22.868Z,1.00
2023-03-25T03:56:37.588Z,0.52
2023-03-25T03:58:49.834Z,0.60
2023-03-25T04:01:04.830Z,1.05
2023-03-25T04:03:17.581Z,0.60
2023-03-25T04:05:30.977Z,0.85
2023-03-25T04:07:43.644Z,0.98
2023-03-25T04:10:00.919Z,0.60
2023-03-25T04:12:13.966Z,0.50
2023-03-25T04:14:25.353Z,0.60
2023-03-25T04:16:35.813Z,0.50
2023-03-25T04:18:48.216Z,0.55
2023-03-25T04:20:56.173Z,0.70
2023-03-25T04:23:04.973Z,0.60
2023-03-25T04:25:14.131Z,1.30
2023-03-25T04:27:23.281Z,0.55
2023-03-25T04:29:34.340Z,0.88
2023-03-25T04:31:46.783Z,1.95
2023-03-25T04:33:54.799Z,0.65
2023-03-25T04:36:03.879Z,0.60
2023-03-25T04:38:12.058Z,3.00
2023-03-25T04:40:20.820Z,1.70
2023-03-25T04:42:33.297Z,0.70
2023-03-25T04:44:45.418Z,0.50
2023-03-25T04:46:53.379Z,0.75
2023-03-25T04:49:03.634Z,1.48
2023-03-25T04:51:13.124Z,0.90
2023-03-25T04:53:21.174Z,0.88
2023-03-25T04:55:30.331Z,0.60
2023-03-25T04:57:38.345Z,0.50
2023-03-25T04:59:48.998Z,0.70
2023-03-25T05:01:57.100Z,0.70
2023-03-25T05:04:07.973Z,0.60
2023-03-25T05:06:15.984Z,0.93
2023-03-25T05:08:24.797Z,1.05
2023-03-25T05:10:32.797Z,0.80
2023-03-25T05:12:40.929Z,1.10
2023-03-25T05:14:51.769Z,1.88
2023-03-25T05:17:00.704Z,1.52
2023-03-25T05:19:09.611Z,2.08
2023-03-25T05:21:17.739Z,1.70
2023-03-25T05:23:26.025Z,1.17
2023-03-25T05:25:37.708Z,0.95
2023-03-25T05:27:46.879Z,2.33
2023-03-25T05:29:58.475Z,1.10
2023-03-25T05:32:06.532Z,0.75
2023-03-25T05:34:17.519Z,2.80
2023-03-25T05:36:26.851Z,1.75
2023-03-25T05:38:35.158Z,1.30
2023-03-25T05:40:43.298Z,1.60
2023-03-25T05:42:55.313Z,0.95
2023-03-25T05:45:06.213Z,1.50
2023-03-25T05:47:14.025Z,1.30
2023-03-25T05:49:21.844Z,1.30
2023-03-25T05:51:34.223Z,1.63
2023-03-25T05:53:43.864Z,1.08
2023-03-25T05:55:52.972Z,1.40
2023-03-25T05:58:01.465Z,1.92
2023-03-25T06:00:15.923Z,1.50
2023-03-25T06:02:24.020Z,1.90
2023-03-25T06:04:34.192Z,2.15
2023-03-25T06:06:42.784Z,5.68
2023-03-25T06:08:53.108Z,1.70
2023-03-25T06:11:01.405Z,3.35
2023-03-25T06:13:09.386Z,1.50
2023-03-25T06:15:29.269Z,2.13
2023-03-25T06:17:39.875Z,1.88
2023-03-25T06:19:48.004Z,2.00
2023-03-25T06:21:56.311Z,1.77
2023-03-25T06:24:05.120Z,2.03
2023-03-25T06:26:13.233Z,1.70
2023-03-25T06:28:22.204Z,3.15
2023-03-25T06:30:32.864Z,1.55
2023-03-25T06:32:41.716Z,1.23
2023-03-25T06:34:49.812Z,1.75
2023-03-25T06:36:58.590Z,1.48
2023-03-25T06:39:08.908Z,1.38
2023-03-25T06:41:17.899Z,1.73
2023-03-25T06:43:25.974Z,2.88
2023-03-25T06:45:53.920Z,3.13
2023-03-25T06:48:09.378Z,1.50
2023-03-25T06:50:17.180Z,2.22
2023-03-25T06:52:25.047Z,1.65
2023-03-25T06:54:33.094Z,1.05
2023-03-25T06:56:41.727Z,1.17
2023-03-25T06:58:49.838Z,1.27
2023-03-25T07:01:03.946Z,3.38
2023-03-25T07:03:12.581Z,1.85
2023-03-25T07:05:20.754Z,1.50
2023-03-25T07:07:29.639Z,1.17
2023-03-25T07:09:37.829Z,1.35
2023-03-25T07:11:46.477Z,1.85
2023-03-25T07:13:54.365Z,4.03
2023-03-25T07:16:06.113Z,1.42
2023-03-25T07:18:14.514Z,3.22
2023-03-25T07:20:22.689Z,1.40
2023-03-25T07:22:30.843Z,1.85
2023-03-25T07:24:38.742Z,2.65
2023-03-25T07:26:46.868Z,2.92
2023-03-25T07:28:56.649Z,2.10
2023-03-25T07:31:09.284Z,1.70
2023-03-25T07:33:17.389Z,1.25
2023-03-25T07:35:25.357Z,1.10
2023-03-25T07:37:33.537Z,1.50
2023-03-25T07:39:41.372Z,1.15
2023-03-25T07:41:49.452Z,1.05
2023-03-25T07:44:12.618Z,0.80
2023-03-25T07:46:23.232Z,2.40
2023-03-25T07:48:31.159Z,1.38
2023-03-25T07:50:39.173Z,2.03
2023-03-25T07:52:49.515Z,1.13
2023-03-25T07:54:57.472Z,0.70
2023-03-25T07:57:05.876Z,0.52
2023-03-25T07:59:13.801Z,0.73
2023-03-25T08:01:24.372Z,0.60
2023-03-25T08:03:32.410Z,0.70
2023-03-25T08:05:40.487Z,0.60
2023-03-25T08:07:48.460Z,1.38
2023-03-25T08:09:56.437Z,0.60
2023-03-25T08:12:04.421Z,1.00
2023-03-25T08:14:12.497Z,4.95
2023-03-25T08:16:23.346Z,1.70
2023-03-25T08:18:34.479Z,0.50
2023-03-25T08:20:42.848Z,1.27
2023-03-25T08:22:51.599Z,4.65
2023-03-25T08:24:59.859Z,0.82
2023-03-25T08:27:14.957Z,0.60
2023-03-25T08:29:25.437Z,2.85
2023-03-25T08:31:38.978Z,1.83
2023-03-25T08:33:49.723Z,1.42
2023-03-25T08:36:00.727Z,4.00
2023-03-25T08:38:09.458Z,1.70
2023-03-25T08:40:18.764Z,0.63
2023-03-25T08:42:26.708Z,0.60
2023-03-25T08:44:34.563Z,0.70
2023-03-25T08:46:43.590Z,1.02
2023-03-25T08:48:54.170Z,1.40
2023-03-25T08:51:03.457Z,3.50
2023-03-25T08:53:11.454Z,0.60
2023-03-25T08:55:19.537Z,0.93
2023-03-25T08:57:28.870Z,0.80
2023-03-25T08:59:37.378Z,0.47
2023-03-25T09:01:47.907Z,0.85
2023-03-25T09:03:58.907Z,0.77
2023-03-25T09:06:08.014Z,2.15
2023-03-25T09:08:21.185Z,0.57
2023-03-25T09:10:29.292Z,1.65
2023-03-25T09:12:38.042Z,0.60
2023-03-25T09:14:47.398Z,0.80
2023-03-25T09:16:55.296Z,0.70
2023-03-25T09:19:06.138Z,0.63
2023-03-25T09:21:14.063Z,2.00
2023-03-25T09:23:22.040Z,1.48
2023-03-25T09:25:31.967Z,1.60
2023-03-25T09:27:40.834Z,0.80
2023-03-25T09:29:48.911Z,0.65
2023-03-25T09:32:02.370Z,1.05
2023-03-25T09:34:14.629Z,1.05
2023-03-25T09:36:29.157Z,0.80
2023-03-25T09:38:37.390Z,0.70
2023-03-25T09:40:46.525Z,1.52
2023-03-25T09:43:06.706Z,1.83
2023-03-25T09:45:32.373Z,3.08
2023-03-25T09:47:40.566Z,2.03
2023-03-25T09:49:57.818Z,0.77
2023-03-25T09:52:11.881Z,1.15
2023-03-25T09:54:26.044Z,1.13
2023-03-25T09:56:42.133Z,2.08
2023-03-25T09:58:53.684Z,1.20
2023-03-25T10:01:08.313Z,0.95
2023-03-25T10:03:23.060Z,0.73
2023-03-25T10:05:51.599Z,0.60
2023-03-25T10:08:13.734Z,0.68
2023-03-25T10:10:30.634Z,3.28
2023-03-25T10:12:46.558Z,1.77
2023-03-25T10:15:06.916Z,0.98
2023-03-25T10:17:23.983Z,0.68
2023-03-25T10:19:45.937Z,1.05
2023-03-25T10:22:06.120Z,1.13
2023-03-25T10:24:21.350Z,0.60
2023-03-25T10:26:30.954Z,0.60
2023-03-25T10:28:45.517Z,2.45
2023-03-25T10:30:57.223Z,0.70
2023-03-25T10:33:07.416Z,0.82
2023-03-25T10:35:20.496Z,2.17
2023-03-25T10:37:35.935Z,2.30
2023-03-25T10:39:47.646Z,0.50
2023-03-25T10:42:00.243Z,0.50
2023-03-25T10:44:12.327Z,0.50
2023-03-25T10:46:28.034Z,0.40
2023-03-25T10:48:37.139Z,0.40
2023-03-25T10:50:46.222Z,0.57
2023-03-25T10:52:58.168Z,1.35
2023-03-25T10:55:06.506Z,1.77
2023-03-25T10:57:21.834Z,1.48
2023-03-25T10:59:35.081Z,0.60
2023-03-25T11:01:45.070Z,0.98
2023-03-25T11:03:56.214Z,0.85
2023-03-25T11:06:04.382Z,1.27
2023-03-25T11:08:24.506Z,0.50
2023-03-25T11:10:35.120Z,0.60
2023-03-25T11:12:45.505Z,0.60
2023-03-25T11:14:59.650Z,0.40
2023-03-25T11:17:14.312Z,0.90
2023-03-25T11:19:28.716Z,1.27
2023-03-25T11:21:39.012Z,1.63
2023-03-25T11:23:51.535Z,0.63
2023-03-25T11:26:06.343Z,2.15
2023-03-25T11:28:19.217Z,0.68
2023-03-25T11:30:28.627Z,1.33
2023-03-25T11:32:40.092Z,1.23
2023-03-25T11:34:51.497Z,2.45
2023-03-25T11:37:04.821Z,0.85
2023-03-25T11:39:21.209Z,1.63
2023-03-25T11:41:34.827Z,0.60
2023-03-25T11:43:43.820Z,0.75
2023-03-25T11:45:52.485Z,1.48
2023-03-25T11:48:04.007Z,0.52
2023-03-25T11:50:24.140Z,0.90
2023-03-25T11:52:42.463Z,0.60
2023-03-25T11:54:56.058Z,0.52
2023-03-25T11:57:08.182Z,0.65
2023-03-25T11:59:24.938Z,0.50
2023-03-25T12:01:51.330Z,0.57
2023-03-25T12:04:17.290Z,0.60
2023-03-25T12:06:26.305Z,0.80
2023-03-25T12:08:45.725Z,1.15
2023-03-25T12:11:00.937Z,0.50
2023-03-25T12:13:12.825Z,1.85
2023-03-25T12:15:28.713Z,0.70
2023-03-25T12:17:50.905Z,0.80
2023-03-25T12:20:11.644Z,1.00
2023-03-25T12:22:33.881Z,0.75
2023-03-25T12:25:01.550Z,0.85
2023-03-25T12:27:28.879Z,1.40
2023-03-25T12:29:50.514Z,0.88
2023-03-25T12:32:09.583Z,1.40
2023-03-25T12:34:25.440Z,0.95
2023-03-25T12:36:48.440Z,0.85
2023-03-25T12:39:10.289Z,0.60
2023-03-25T12:41:25.089Z,1.65
2023-03-25T12:43:47.650Z,0.50
2023-03-25T12:46:10.026Z,1.17
2023-03-25T12:48:28.684Z,1.15
2023-03-25T12:50:43.888Z,0.55
2023-03-25T12:52:59.876Z,0.60
2023-03-25T12:55:26.841Z,0.60
2023-03-25T12:57:49.776Z,1.95
2023-03-25T13:00:14.401Z,2.15
2023-03-25T13:02:49.713Z,0.50
2023-03-25T13:05:08.725Z,0.65
2023-03-25T13:07:21.934Z,0.68
2023-03-25T13:09:35.642Z,1.00
2023-03-25T13:11:49.706Z,1.02
2023-03-25T13:14:02.442Z,0.50
2023-03-25T13:16:16.500Z,0.50
2023-03-25T13:18:29.809Z,0.60
2023-03-25T13:20:41.447Z,2.67
2023-03-25T13:22:54.159Z,0.93
2023-03-25T13:25:05.203Z,0.98
2023-03-25T13:27:16.312Z,0.88
2023-03-25T13:29:30.936Z,1.00
2023-03-25T13:31:47.104Z,0.63
2023-03-25T13:34:04.882Z,1.02
2023-03-25T13:36:21.761Z,1.27
2023-03-25T13:38:35.408Z,1.00
2023-03-25T13:40:49.560Z,0.47
2023-03-25T13:43:02.493Z,1.15
2023-03-25T13:45:19.774Z,0.70
2023-03-25T13:47:35.387Z,1.33
2023-03-25T13:49:51.155Z,0.93
2023-03-25T13:51:59.451Z,1.20
2023-03-25T13:54:12.988Z,0.50
2023-03-25T13:57:02.294Z,5.07
2023-03-25T13:59:28.595Z,0.80
2023-03-25T14:01:51.784Z,1.48
2023-03-25T14:04:44.571Z,1.23
2023-03-25T14:07:25.658Z,1.33
2023-03-25T14:10:08.503Z,3.53
2023-03-25T14:12:19.858Z,3.83
2023-03-25T14:14:28.689Z,2.15
2023-03-25T14:16:42.565Z,1.08
2023-03-25T14:18:56.756Z,1.02
2023-03-25T14:21:18.495Z,1.98
2023-03-25T14:23:34.915Z,0.90
2023-03-25T14:25:45.653Z,1.92
2023-03-25T14:27:55.035Z,0.63
2023-03-25T14:30:06.089Z,1.67
2023-03-25T14:32:35.088Z,1.23
2023-03-25T14:34:43.015Z,0.95
2023-03-25T14:37:21.480Z,1.73
2023-03-25T14:39:43.812Z,1.00
2023-03-25T14:42:03.139Z,1.42
2023-03-25T14:44:22.852Z,0.70
2023-03-25T14:46:39.173Z,1.17
2023-03-25T14:48:52.102Z,0.68
2023-03-25T14:51:23.172Z,1.27
2023-03-25T14:53:33.243Z,0.60
2023-03-25T14:55:49.507Z,1.02
2023-03-25T14:58:02.457Z,1.10
2023-03-25T15:00:14.097Z,1.02
2023-03-25T15:02:26.244Z,1.63
2023-03-25T15:04:38.169Z,1.33
2023-03-25T15:06:46.678Z,2.70
2023-03-25T15:08:57.736Z,1.52
2023-03-25T15:11:16.177Z,1.90
2023-03-25T15:13:29.016Z,1.40
2023-03-25T15:15:58.080Z,2.15
2023-03-25T15:18:06.289Z,2.83
2023-03-25T15:20:39.076Z,1.17
2023-03-25T15:22:47.438Z,0.47
2023-03-25T15:25:01.311Z,2.42
2023-03-25T15:27:26.116Z,6.10
2023-03-25T15:29:55.335Z,1.48
2023-03-25T15:32:21.074Z,1.33
2023-03-25T15:34:46.838Z,0.57
2023-03-25T15:37:11.558Z,3.15
2023-03-25T15:39:52.373Z,1.02
2023-03-25T15:42:25.198Z,5.20
2023-03-25T15:45:15.617Z,1.55
2023-03-25T15:47:40.813Z,5.22
2023-03-25T15:50:13.291Z,4.22
2023-03-25T15:52:32.714Z,0.85
2023-03-25T15:54:45.029Z,1.55
2023-03-25T15:56:57.604Z,0.85
2023-03-25T15:59:15.703Z,0.95
2023-03-25T16:01:27.680Z,1.42
2023-03-25T16:03:36.985Z,0.50
2023-03-25T16:05:54.077Z,2.15
2023-03-25T16:08:08.372Z,1.30
2023-03-25T16:10:19.555Z,1.15
2023-03-25T16:12:30.193Z,3.45
2023-03-25T16:14:41.565Z,0.65
2023-03-25T16:16:52.663Z,1.42
2023-03-25T16:19:00.657Z,0.88
2023-03-25T16:21:09.172Z,1.23
2023-03-25T16:23:23.426Z,2.45
2023-03-25T16:25:38.181Z,1.90
2023-03-25T16:27:48.657Z,0.40
2023-03-25T16:29:59.635Z,2.05
2023-03-25T16:32:08.894Z,1.52
2023-03-25T16:34:18.707Z,1.73
2023-03-25T16:36:27.550Z,1.02
2023-03-25T16:38:36.779Z,2.60
2023-03-25T16:40:47.046Z,1.80
2023-03-25T16:42:56.946Z,1.48
2023-03-25T16:45:14.439Z,3.10
2023-03-25T16:47:24.170Z,0.70
2023-03-25T16:49:35.184Z,0.77
2023-03-25T16:51:43.813Z,1.95
2023-03-25T16:53:53.856Z,1.25
2023-03-25T16:56:23.435Z,1.25
2023-03-25T16:58:31.909Z,1.52
2023-03-25T17:00:44.780Z,2.13
2023-03-25T17:02:54.372Z,2.03
2023-03-25T17:05:19.053Z,5.88
2023-03-25T17:07:29.866Z,0.77
2023-03-25T17:09:43.178Z,3.42
2023-03-25T17:11:55.380Z,1.50
2023-03-25T17:14:06.401Z,0.80
2023-03-25T17:16:17.602Z,3.45
2023-03-25T17:18:32.070Z,1.30
2023-03-25T17:20:42.577Z,2.92
2023-03-25T17:23:02.431Z,191.27
2023-03-25T17:25:19.694Z,183.43
2023-03-25T17:27:30.204Z,75.60
2023-03-25T17:29:52.490Z,176.77
2023-03-25T17:32:03.139Z,99.97
2023-03-25T17:34:14.715Z,184.90
2023-03-25T17:36:23.493Z,483.90
2023-03-25T17:38:36.759Z,194.80
2023-03-25T17:40:44.715Z,150.20
2023-03-25T17:42:53.017Z,193.57
2023-03-25T17:45:01.372Z,98.00
2023-03-25T17:47:18.696Z,26.08
2023-03-25T17:49:27.115Z,4.78
2023-03-25T17:51:35.104Z,2.83
2023-03-25T17:53:43.160Z,6.68
2023-03-25T17:55:52.060Z,81.47
2023-03-25T17:57:59.998Z,87.72
2023-03-25T18:00:11.680Z,109.03
2023-03-25T18:02:22.251Z,16.17
2023-03-25T18:04:30.965Z,20.15
2023-03-25T18:06:38.900Z,19.17
2023-03-25T18:08:47.144Z,4.38
2023-03-25T18:10:56.477Z,3.70
2023-03-25T18:13:05.649Z,3.17
2023-03-25T18:15:14.239Z,20.85
2023-03-25T18:17:24.928Z,19.33
2023-03-25T18:19:34.742Z,9.90
2023-03-25T18:21:42.987Z,18.95
2023-03-25T18:23:51.041Z,5.85
2023-03-25T18:26:00.306Z,5.05
2023-03-25T18:28:09.128Z,9.23
2023-03-25T18:30:22.107Z,4.70
2023-03-25T18:32:33.384Z,8.48
2023-03-25T18:34:41.613Z,11.55
2023-03-25T18:36:49.667Z,5.40
2023-03-25T18:38:58.935Z,3.90
2023-03-25T18:41:07.450Z,5.10
2023-03-25T18:43:15.851Z,3.70
2023-03-25T18:45:25.334Z,3.63
2023-03-25T18:47:36.013Z,4.28
2023-03-25T18:49:44.265Z,3.05
2023-03-25T18:51:52.574Z,3.17
2023-03-25T18:54:00.880Z,2.33
2023-03-25T18:56:10.517Z,2.05
2023-03-25T18:58:20.758Z,5.43
2023-03-25T19:00:32.450Z,5.05
2023-03-25T19:02:43.406Z,4.13
2023-03-25T19:05:00.704Z,3.22
2023-03-25T19:07:09.467Z,4.68
2023-03-25T19:09:22.918Z,3.00
2023-03-25T19:11:33.988Z,3.05
2023-03-25T19:13:42.773Z,6.60
2023-03-25T19:15:50.812Z,4.13
2023-03-25T19:18:02.084Z,4.50
2023-03-25T19:20:12.315Z,11.40
2023-03-25T19:22:20.327Z,9.57
2023-03-25T19:24:28.478Z,4.18
2023-03-25T19:26:39.598Z,8.00
2023-03-25T19:28:47.591Z,4.85
2023-03-25T19:30:56.125Z,3.60
2023-03-25T19:33:07.801Z,3.47
2023-03-25T19:35:17.567Z,3.13
2023-03-25T19:37:26.828Z,5.90
2023-03-25T19:39:35.079Z,3.50
2023-03-25T19:41:45.016Z,3.00
2023-03-25T19:43:52.977Z,1.88
2023-03-25T19:46:02.057Z,1.48
2023-03-25T19:48:12.906Z,3.53
2023-03-25T19:50:26.716Z,4.80
2023-03-25T19:52:40.845Z,2.05
2023-03-25T19:54:50.130Z,1.38
2023-03-25T19:56:58.232Z,2.30
2023-03-25T19:59:06.239Z,5.40
2023-03-25T20:01:14.273Z,3.60
2023-03-25T20:03:25.198Z,2.20
2023-03-25T20:05:36.457Z,2.90
2023-03-25T20:07:46.985Z,1.67
2023-03-25T20:09:59.221Z,3.53
2023-03-25T20:12:12.360Z,2.35
2023-03-25T20:14:20.503Z,2.72
2023-03-25T20:16:35.129Z,1.85
2023-03-25T20:18:47.122Z,3.25
2023-03-25T20:20:55.124Z,3.25
2023-03-25T20:23:03.302Z,2.78
2023-03-25T20:25:13.173Z,2.88
2023-03-25T20:27:21.172Z,2.42
2023-03-25T20:29:29.502Z,1.50
2023-03-25T20:31:37.968Z,2.42
2023-03-25T20:33:50.198Z,2.40
2023-03-25T20:35:58.277Z,2.03
2023-03-25T20:38:07.471Z,1.60
2023-03-25T20:40:18.634Z,2.13
2023-03-25T20:42:26.652Z,1.38
2023-03-25T20:44:34.724Z,2.05
2023-03-25T20:46:46.557Z,3.33
2023-03-25T20:48:57.561Z,3.25
2023-03-25T20:51:09.367Z,2.95
2023-03-25T20:53:18.875Z,2.78
2023-03-25T20:55:28.182Z,1.70
2023-03-25T20:57:36.470Z,1.90
2023-03-25T20:59:44.457Z,3.63
2023-03-25T21:01:55.053Z,1.45
2023-03-25T21:04:06.484Z,3.45
2023-03-25T21:06:24.416Z,3.10
2023-03-25T21:08:34.610Z,2.45
2023-03-25T21:10:47.069Z,2.63
2023-03-25T21:12:55.028Z,3.83
2023-03-25T21:15:04.808Z,3.13
2023-03-25T21:17:12.968Z,2.50
2023-03-25T21:19:23.963Z,2.53
2023-03-25T21:21:32.672Z,3.05
2023-03-25T21:23:43.350Z,2.97
2023-03-25T21:25:52.694Z,1.70
2023-03-25T21:28:01.349Z,2.83
2023-03-25T21:30:10.600Z,1.60
2023-03-25T21:32:18.690Z,2.50
2023-03-25T21:34:30.501Z,2.00
2023-03-25T21:36:41.293Z,2.10
2023-03-25T21:38:49.577Z,2.58
2023-03-25T21:40:58.595Z,1.40
2023-03-25T21:43:06.572Z,3.90
2023-03-25T21:45:17.114Z,1.70
2023-03-25T21:47:25.149Z,2.33
2023-03-25T21:49:38.633Z,1.80
2023-03-25T21:51:57.004Z,1.70
2023-03-25T21:54:05.088Z,1.38
2023-03-25T21:56:15.061Z,2.10
2023-03-25T21:58:23.113Z,1.48
2023-03-25T22:00:31.272Z,2.25
2023-03-25T22:02:39.660Z,1.42
2023-03-25T22:04:50.903Z,1.65
2023-03-25T22:06:59.649Z,1.30
2023-03-25T22:09:09.493Z,1.40
2023-03-25T22:11:20.056Z,2.95
2023-03-25T22:13:28.012Z,1.60
2023-03-25T22:15:35.912Z,2.13
2023-03-25T22:17:43.899Z,1.75
2023-03-25T22:19:54.879Z,1.85
2023-03-25T22:22:03.088Z,1.90
2023-03-25T22:24:11.801Z,1.50
2023-03-25T22:26:21.034Z,3.50
2023-03-25T22:28:31.261Z,1.52
2023-03-25T22:30:40.199Z,4.90
2023-03-25T22:32:48.339Z,3.33
2023-03-25T22:34:58.820Z,2.08
2023-03-25T22:37:06.930Z,2.15
2023-03-25T22:39:15.224Z,2.15
2023-03-25T22:41:23.081Z,2.22
2023-03-25T22:43:32.144Z,2.90
2023-03-25T22:45:40.227Z,2.35
2023-03-25T22:47:48.232Z,2.13
2023-03-25T22:49:59.010Z,3.42
2023-03-25T22:52:07.905Z,2.45
2023-03-25T22:54:16.308Z,2.13
2023-03-25T22:56:26.047Z,2.47
2023-03-25T22:58:34.797Z,2.95
2023-03-25T23:00:42.664Z,2.97
2023-03-25T23:02:50.783Z,3.47
2023-03-25T23:05:01.617Z,2.10
2023-03-25T23:07:09.635Z,1.90
2023-03-25T23:09:39.095Z,2.33
2023-03-25T23:11:48.406Z,1.30
2023-03-25T23:13:58.648Z,2.42
2023-03-25T23:16:09.680Z,1.88
2023-03-25T23:18:17.923Z,4.50
2023-03-25T23:20:29.627Z,2.22
2023-03-25T23:22:37.630Z,1.60
2023-03-25T23:24:45.653Z,4.15
2023-03-25T23:26:53.570Z,2.95
2023-03-25T23:29:03.413Z,1.70
2023-03-25T23:31:13.501Z,2.33
2023-03-25T23:33:21.598Z,2.30
2023-03-25T23:35:32.666Z,1.67
2023-03-25T23:37:41.741Z,2.47
2023-03-25T23:39:49.595Z,5.90
2023-03-25T23:41:58.336Z,4.38
2023-03-25T23:44:07.652Z,2.35
2023-03-25T23:46:18.549Z,2.60
2023-03-25T23:48:27.059Z,3.03
2023-03-25T23:50:41.446Z,2.28
2023-03-25T23:52:49.962Z,2.30
2023-03-25T23:54:58.516Z,1.63
2023-03-25T23:57:22.328Z,2.50
2023-03-25T23:59:31.250Z,3.17
